Terminal Aerodrome Forecast
Issued by NWS

Home | Current Version | Previous Version | Text Only | Print | Product List | Glossary On
Versions: 1 2 3 4 5 6 7 8 9 10 11 12 13 14
000
FTUS44 KTSA 280100 AAA
TAFXNA
TAF AMD
KXNA 280106Z 2801/2824 35011KT P6SM OVC011
     FM280600 00000KT P6SM SCT015 BKN100
     FM281500 35005KT P6SM BKN250=

USA.gov is the U.S. government's official web portal to all federal, state and local government web resources and services.